sensor_id;sensor_type;location;lat;lon;timestamp;P1;durP1;ratioP1;P2;durP2;ratioP2
31764;SDS011;18338;53.240;8.798;2022-11-20T00:01:26;8.90;;;6.53;;
31764;SDS011;18338;53.240;8.798;2022-11-20T00:03:54;10.73;;;7.57;;
31764;SDS011;18338;53.240;8.798;2022-11-20T00:06:22;9.87;;;7.13;;
31764;SDS011;18338;53.240;8.798;2022-11-20T00:08:50;10.00;;;7.00;;
31764;SDS011;18338;53.240;8.798;2022-11-20T00:11:18;9.67;;;7.17;;
31764;SDS011;18338;53.240;8.798;2022-11-20T00:13:47;10.00;;;7.37;;
31764;SDS011;18338;53.240;8.798;2022-11-20T00:16:16;11.33;;;7.43;;
31764;SDS011;18338;53.240;8.798;2022-11-20T00:18:45;10.87;;;7.40;;
31764;SDS011;18338;53.240;8.798;2022-11-20T00:21:14;9.20;;;7.30;;
31764;SDS011;18338;53.240;8.798;2022-11-20T00:23:47;10.33;;;7.67;;
31764;SDS011;18338;53.240;8.798;2022-11-20T00:26:16;10.63;;;8.03;;
31764;SDS011;18338;53.240;8.798;2022-11-20T00:28:48;10.10;;;8.20;;
31764;SDS011;18338;53.240;8.798;2022-11-20T00:31:16;12.47;;;8.80;;
31764;SDS011;18338;53.240;8.798;2022-11-20T00:33:43;12.13;;;8.53;;
31764;SDS011;18338;53.240;8.798;2022-11-20T00:36:12;12.37;;;8.57;;
31764;SDS011;18338;53.240;8.798;2022-11-20T00:38:50;11.73;;;8.63;;
31764;SDS011;18338;53.240;8.798;2022-11-20T00:41:18;12.90;;;9.40;;
31764;SDS011;18338;53.240;8.798;2022-11-20T00:43:44;12.13;;;9.37;;
31764;SDS011;18338;53.240;8.798;2022-11-20T00:46:18;14.37;;;9.80;;
31764;SDS011;18338;53.240;8.798;2022-11-20T00:48:46;11.70;;;8.70;;
31764;SDS011;18338;53.240;8.798;2022-11-20T00:51:14;11.23;;;8.30;;
31764;SDS011;18338;53.240;8.798;2022-11-20T00:53:43;10.57;;;8.53;;
31764;SDS011;18338;53.240;8.798;2022-11-20T00:56:12;12.77;;;9.47;;
31764;SDS011;18338;53.240;8.798;2022-11-20T00:58:40;11.97;;;8.90;;
31764;SDS011;18338;53.240;8.798;2022-11-20T01:01:10;12.00;;;8.90;;
31764;SDS011;18338;53.240;8.798;2022-11-20T01:03:39;11.53;;;8.07;;
31764;SDS011;18338;53.240;8.798;2022-11-20T01:06:11;9.10;;;7.50;;
31764;SDS011;18338;53.240;8.798;2022-11-20T01:08:40;7.53;;;6.47;;
31764;SDS011;18338;53.240;8.798;2022-11-20T01:11:09;9.80;;;6.77;;
31764;SDS011;18338;53.240;8.798;2022-11-20T01:13:38;8.47;;;6.40;;
31764;SDS011;18338;53.240;8.798;2022-11-20T01:16:11;9.07;;;6.00;;
31764;SDS011;18338;53.240;8.798;2022-11-20T01:18:38;10.40;;;6.33;;
31764;SDS011;18338;53.240;8.798;2022-11-20T01:21:10;9.87;;;7.23;;
31764;SDS011;18338;53.240;8.798;2022-11-20T01:23:39;9.43;;;6.67;;
31764;SDS011;18338;53.240;8.798;2022-11-20T01:26:08;14.17;;;7.20;;
31764;SDS011;18338;53.240;8.798;2022-11-20T01:28:37;8.80;;;6.97;;
31764;SDS011;18338;53.240;8.798;2022-11-20T01:31:13;8.57;;;6.43;;
31764;SDS011;18338;53.240;8.798;2022-11-20T01:33:45;9.07;;;7.00;;
31764;SDS011;18338;53.240;8.798;2022-11-20T01:36:14;10.53;;;7.87;;
31764;SDS011;18338;53.240;8.798;2022-11-20T01:38:42;8.60;;;7.53;;
31764;SDS011;18338;53.240;8.798;2022-11-20T01:41:09;11.80;;;8.10;;
31764;SDS011;18338;53.240;8.798;2022-11-20T01:43:37;9.77;;;7.87;;
31764;SDS011;18338;53.240;8.798;2022-11-20T01:46:19;12.30;;;8.70;;
31764;SDS011;18338;53.240;8.798;2022-11-20T01:51:32;14.00;;;9.83;;
31764;SDS011;18338;53.240;8.798;2022-11-20T01:54:01;13.57;;;10.20;;
31764;SDS011;18338;53.240;8.798;2022-11-20T01:56:31;14.40;;;11.20;;
31764;SDS011;18338;53.240;8.798;2022-11-20T01:59:03;16.07;;;11.13;;
31764;SDS011;18338;53.240;8.798;2022-11-20T02:01:33;15.53;;;11.93;;
31764;SDS011;18338;53.240;8.798;2022-11-20T02:04:00;17.83;;;13.03;;
31764;SDS011;18338;53.240;8.798;2022-11-20T02:06:32;17.67;;;13.07;;
31764;SDS011;18338;53.240;8.798;2022-11-20T02:09:02;19.80;;;14.50;;
31764;SDS011;18338;53.240;8.798;2022-11-20T02:11:30;21.70;;;16.17;;
31764;SDS011;18338;53.240;8.798;2022-11-20T02:13:57;20.70;;;15.13;;
31764;SDS011;18338;53.240;8.798;2022-11-20T02:16:25;21.77;;;16.13;;
31764;SDS011;18338;53.240;8.798;2022-11-20T02:18:55;20.37;;;15.83;;
31764;SDS011;18338;53.240;8.798;2022-11-20T02:24:14;21.37;;;15.50;;
31764;SDS011;18338;53.240;8.798;2022-11-20T02:29:19;23.17;;;15.47;;
31764;SDS011;18338;53.240;8.798;2022-11-20T02:31:51;21.57;;;15.90;;
31764;SDS011;18338;53.240;8.798;2022-11-20T02:34:21;24.40;;;15.70;;
31764;SDS011;18338;53.240;8.798;2022-11-20T02:36:47;23.80;;;16.40;;
31764;SDS011;18338;53.240;8.798;2022-11-20T02:39:17;21.53;;;15.83;;
31764;SDS011;18338;53.240;8.798;2022-11-20T02:41:47;21.27;;;15.90;;
31764;SDS011;18338;53.240;8.798;2022-11-20T02:44:13;23.90;;;15.70;;
31764;SDS011;18338;53.240;8.798;2022-11-20T02:46:40;23.27;;;16.23;;
31764;SDS011;18338;53.240;8.798;2022-11-20T02:49:06;22.60;;;16.07;;
31764;SDS011;18338;53.240;8.798;2022-11-20T02:51:33;21.23;;;15.60;;
31764;SDS011;18338;53.240;8.798;2022-11-20T02:54:00;24.03;;;16.97;;
31764;SDS011;18338;53.240;8.798;2022-11-20T02:56:27;22.97;;;15.57;;
31764;SDS011;18338;53.240;8.798;2022-11-20T02:58:54;22.20;;;15.47;;
31764;SDS011;18338;53.240;8.798;2022-11-20T03:01:21;21.67;;;16.40;;
31764;SDS011;18338;53.240;8.798;2022-11-20T03:03:48;23.30;;;15.27;;
31764;SDS011;18338;53.240;8.798;2022-11-20T03:06:15;21.33;;;15.53;;
31764;SDS011;18338;53.240;8.798;2022-11-20T03:08:42;20.20;;;15.03;;
31764;SDS011;18338;53.240;8.798;2022-11-20T03:11:09;23.63;;;16.07;;
31764;SDS011;18338;53.240;8.798;2022-11-20T03:13:37;22.33;;;16.53;;
31764;SDS011;18338;53.240;8.798;2022-11-20T03:16:07;20.97;;;15.43;;
31764;SDS011;18338;53.240;8.798;2022-11-20T03:18:35;25.53;;;16.87;;
31764;SDS011;18338;53.240;8.798;2022-11-20T03:21:02;23.70;;;17.00;;
31764;SDS011;18338;53.240;8.798;2022-11-20T03:23:30;21.87;;;15.57;;
31764;SDS011;18338;53.240;8.798;2022-11-20T03:28:55;23.73;;;16.23;;
31764;SDS011;18338;53.240;8.798;2022-11-20T03:31:30;23.40;;;16.63;;
31764;SDS011;18338;53.240;8.798;2022-11-20T03:34:01;24.43;;;16.73;;
31764;SDS011;18338;53.240;8.798;2022-11-20T03:36:30;23.97;;;16.83;;
31764;SDS011;18338;53.240;8.798;2022-11-20T03:38:57;21.83;;;15.83;;
31764;SDS011;18338;53.240;8.798;2022-11-20T03:41:27;23.37;;;16.53;;
31764;SDS011;18338;53.240;8.798;2022-11-20T03:43:57;21.67;;;15.60;;
31764;SDS011;18338;53.240;8.798;2022-11-20T03:46:26;21.80;;;15.60;;
31764;SDS011;18338;53.240;8.798;2022-11-20T03:48:53;21.73;;;16.00;;
31764;SDS011;18338;53.240;8.798;2022-11-20T03:51:27;22.83;;;15.30;;
31764;SDS011;18338;53.240;8.798;2022-11-20T03:53:56;23.57;;;16.17;;
31764;SDS011;18338;53.240;8.798;2022-11-20T03:56:28;22.63;;;15.80;;
31764;SDS011;18338;53.240;8.798;2022-11-20T03:58:56;21.77;;;15.27;;
31764;SDS011;18338;53.240;8.798;2022-11-20T04:01:27;23.77;;;16.07;;
31764;SDS011;18338;53.240;8.798;2022-11-20T04:03:59;22.57;;;16.00;;
31764;SDS011;18338;53.240;8.798;2022-11-20T04:06:30;21.53;;;15.57;;
31764;SDS011;18338;53.240;8.798;2022-11-20T04:09:01;20.67;;;15.17;;
31764;SDS011;18338;53.240;8.798;2022-11-20T04:11:29;21.37;;;15.23;;
31764;SDS011;18338;53.240;8.798;2022-11-20T04:13:58;20.43;;;14.40;;
31764;SDS011;18338;53.240;8.798;2022-11-20T04:16:28;21.47;;;15.07;;
31764;SDS011;18338;53.240;8.798;2022-11-20T04:18:57;21.83;;;15.00;;
31764;SDS011;18338;53.240;8.798;2022-11-20T04:21:25;21.80;;;14.60;;
31764;SDS011;18338;53.240;8.798;2022-11-20T04:23:52;21.57;;;15.27;;
31764;SDS011;18338;53.240;8.798;2022-11-20T04:26:20;18.50;;;13.37;;
31764;SDS011;18338;53.240;8.798;2022-11-20T04:28:48;19.07;;;13.97;;
31764;SDS011;18338;53.240;8.798;2022-11-20T04:31:16;16.90;;;13.30;;
31764;SDS011;18338;53.240;8.798;2022-11-20T04:33:44;20.50;;;14.37;;
31764;SDS011;18338;53.240;8.798;2022-11-20T04:36:18;17.60;;;13.03;;
31764;SDS011;18338;53.240;8.798;2022-11-20T04:38:50;20.57;;;13.30;;
31764;SDS011;18338;53.240;8.798;2022-11-20T04:41:22;17.80;;;12.83;;
31764;SDS011;18338;53.240;8.798;2022-11-20T04:43:55;22.83;;;13.67;;
31764;SDS011;18338;53.240;8.798;2022-11-20T04:46:26;20.07;;;13.50;;
31764;SDS011;18338;53.240;8.798;2022-11-20T04:48:54;16.50;;;12.07;;
31764;SDS011;18338;53.240;8.798;2022-11-20T04:51:21;20.57;;;13.07;;
31764;SDS011;18338;53.240;8.798;2022-11-20T04:53:47;16.83;;;12.63;;
31764;SDS011;18338;53.240;8.798;2022-11-20T04:56:14;15.60;;;12.00;;
31764;SDS011;18338;53.240;8.798;2022-11-20T04:58:41;17.20;;;12.10;;
31764;SDS011;18338;53.240;8.798;2022-11-20T05:01:12;15.30;;;11.70;;
31764;SDS011;18338;53.240;8.798;2022-11-20T05:03:41;17.13;;;11.63;;
31764;SDS011;18338;53.240;8.798;2022-11-20T05:06:10;16.07;;;11.43;;
31764;SDS011;18338;53.240;8.798;2022-11-20T05:08:38;16.67;;;11.57;;
31764;SDS011;18338;53.240;8.798;2022-11-20T05:11:09;17.10;;;11.83;;
31764;SDS011;18338;53.240;8.798;2022-11-20T05:13:37;18.40;;;12.57;;
31764;SDS011;18338;53.240;8.798;2022-11-20T05:16:12;15.47;;;11.83;;
31764;SDS011;18338;53.240;8.798;2022-11-20T05:18:40;16.87;;;12.23;;
31764;SDS011;18338;53.240;8.798;2022-11-20T05:21:08;20.57;;;12.43;;
31764;SDS011;18338;53.240;8.798;2022-11-20T05:23:36;15.50;;;11.10;;
31764;SDS011;18338;53.240;8.798;2022-11-20T05:26:03;14.37;;;10.97;;
31764;SDS011;18338;53.240;8.798;2022-11-20T05:28:32;14.43;;;10.77;;
31764;SDS011;18338;53.240;8.798;2022-11-20T05:31:12;16.07;;;11.57;;
31764;SDS011;18338;53.240;8.798;2022-11-20T05:33:41;15.00;;;10.63;;
31764;SDS011;18338;53.240;8.798;2022-11-20T05:36:09;16.00;;;11.40;;
31764;SDS011;18338;53.240;8.798;2022-11-20T05:38:38;15.47;;;10.93;;
31764;SDS011;18338;53.240;8.798;2022-11-20T05:41:09;14.60;;;10.23;;
31764;SDS011;18338;53.240;8.798;2022-11-20T05:43:40;16.47;;;11.77;;
31764;SDS011;18338;53.240;8.798;2022-11-20T05:46:10;16.67;;;10.93;;
31764;SDS011;18338;53.240;8.798;2022-11-20T05:48:39;14.27;;;10.77;;
31764;SDS011;18338;53.240;8.798;2022-11-20T05:51:08;16.93;;;11.13;;
31764;SDS011;18338;53.240;8.798;2022-11-20T05:53:37;16.53;;;11.63;;
31764;SDS011;18338;53.240;8.798;2022-11-20T05:56:11;17.00;;;10.27;;
31764;SDS011;18338;53.240;8.798;2022-11-20T05:58:40;15.53;;;10.90;;
31764;SDS011;18338;53.240;8.798;2022-11-20T06:03:43;21.20;;;11.00;;
31764;SDS011;18338;53.240;8.798;2022-11-20T06:06:14;15.70;;;10.47;;
31764;SDS011;18338;53.240;8.798;2022-11-20T06:08:41;14.47;;;11.13;;
31764;SDS011;18338;53.240;8.798;2022-11-20T06:11:09;14.47;;;10.63;;
31764;SDS011;18338;53.240;8.798;2022-11-20T06:13:37;14.73;;;10.93;;
31764;SDS011;18338;53.240;8.798;2022-11-20T06:16:07;15.77;;;10.60;;
31764;SDS011;18338;53.240;8.798;2022-11-20T06:18:35;12.93;;;10.37;;
31764;SDS011;18338;53.240;8.798;2022-11-20T06:21:05;14.93;;;10.50;;
31764;SDS011;18338;53.240;8.798;2022-11-20T06:23:38;13.63;;;10.20;;
31764;SDS011;18338;53.240;8.798;2022-11-20T06:26:06;14.13;;;10.30;;
31764;SDS011;18338;53.240;8.798;2022-11-20T06:28:38;14.00;;;9.93;;
31764;SDS011;18338;53.240;8.798;2022-11-20T06:31:05;12.63;;;10.03;;
31764;SDS011;18338;53.240;8.798;2022-11-20T06:33:32;14.97;;;10.23;;
31764;SDS011;18338;53.240;8.798;2022-11-20T06:35:59;14.27;;;10.30;;
31764;SDS011;18338;53.240;8.798;2022-11-20T06:38:35;14.03;;;10.53;;
31764;SDS011;18338;53.240;8.798;2022-11-20T06:41:02;12.07;;;9.93;;
31764;SDS011;18338;53.240;8.798;2022-11-20T06:43:30;13.63;;;10.23;;
31764;SDS011;18338;53.240;8.798;2022-11-20T06:45:57;14.03;;;10.73;;
31764;SDS011;18338;53.240;8.798;2022-11-20T06:48:28;14.73;;;10.80;;
31764;SDS011;18338;53.240;8.798;2022-11-20T06:50:55;13.97;;;10.50;;
31764;SDS011;18338;53.240;8.798;2022-11-20T06:53:22;17.90;;;12.87;;
31764;SDS011;18338;53.240;8.798;2022-11-20T06:55:50;19.50;;;12.83;;
31764;SDS011;18338;53.240;8.798;2022-11-20T06:58:17;13.70;;;10.67;;
31764;SDS011;18338;53.240;8.798;2022-11-20T07:00:44;14.03;;;10.13;;
31764;SDS011;18338;53.240;8.798;2022-11-20T07:03:11;15.20;;;10.70;;
31764;SDS011;18338;53.240;8.798;2022-11-20T07:05:38;14.20;;;10.40;;
31764;SDS011;18338;53.240;8.798;2022-11-20T07:08:06;13.17;;;10.20;;
31764;SDS011;18338;53.240;8.798;2022-11-20T07:10:32;13.27;;;9.93;;
31764;SDS011;18338;53.240;8.798;2022-11-20T07:12:59;13.20;;;9.87;;
31764;SDS011;18338;53.240;8.798;2022-11-20T07:15:26;12.53;;;9.43;;
31764;SDS011;18338;53.240;8.798;2022-11-20T07:17:52;12.90;;;9.63;;
31764;SDS011;18338;53.240;8.798;2022-11-20T07:20:19;12.33;;;9.20;;
31764;SDS011;18338;53.240;8.798;2022-11-20T07:22:46;12.67;;;9.80;;
31764;SDS011;18338;53.240;8.798;2022-11-20T07:25:12;14.07;;;9.63;;
31764;SDS011;18338;53.240;8.798;2022-11-20T07:27:39;11.53;;;9.43;;
31764;SDS011;18338;53.240;8.798;2022-11-20T07:30:06;12.53;;;9.47;;
31764;SDS011;18338;53.240;8.798;2022-11-20T07:32:33;12.03;;;9.37;;
31764;SDS011;18338;53.240;8.798;2022-11-20T07:34:59;12.87;;;9.43;;
31764;SDS011;18338;53.240;8.798;2022-11-20T07:37:26;11.30;;;9.03;;
31764;SDS011;18338;53.240;8.798;2022-11-20T07:39:53;13.37;;;9.10;;
31764;SDS011;18338;53.240;8.798;2022-11-20T07:42:19;13.37;;;10.13;;
31764;SDS011;18338;53.240;8.798;2022-11-20T07:44:46;15.33;;;11.00;;
31764;SDS011;18338;53.240;8.798;2022-11-20T07:47:12;14.50;;;11.50;;
31764;SDS011;18338;53.240;8.798;2022-11-20T07:49:39;11.93;;;9.97;;
31764;SDS011;18338;53.240;8.798;2022-11-20T07:52:06;11.47;;;9.27;;
31764;SDS011;18338;53.240;8.798;2022-11-20T07:54:33;10.60;;;8.93;;
31764;SDS011;18338;53.240;8.798;2022-11-20T07:56:59;11.10;;;8.60;;
31764;SDS011;18338;53.240;8.798;2022-11-20T07:59:26;11.83;;;9.03;;
31764;SDS011;18338;53.240;8.798;2022-11-20T08:01:52;12.27;;;9.30;;
31764;SDS011;18338;53.240;8.798;2022-11-20T08:04:19;11.60;;;9.57;;
31764;SDS011;18338;53.240;8.798;2022-11-20T08:06:46;13.03;;;10.20;;
31764;SDS011;18338;53.240;8.798;2022-11-20T08:09:13;13.23;;;10.27;;
31764;SDS011;18338;53.240;8.798;2022-11-20T08:11:39;11.97;;;9.10;;
31764;SDS011;18338;53.240;8.798;2022-11-20T08:14:25;11.47;;;8.37;;
31764;SDS011;18338;53.240;8.798;2022-11-20T08:16:53;10.43;;;8.47;;
31764;SDS011;18338;53.240;8.798;2022-11-20T08:19:20;10.80;;;8.67;;
31764;SDS011;18338;53.240;8.798;2022-11-20T08:21:47;12.90;;;7.73;;
31764;SDS011;18338;53.240;8.798;2022-11-20T08:24:14;9.17;;;7.67;;
31764;SDS011;18338;53.240;8.798;2022-11-20T08:26:40;10.57;;;7.93;;
31764;SDS011;18338;53.240;8.798;2022-11-20T08:29:07;10.20;;;7.87;;
31764;SDS011;18338;53.240;8.798;2022-11-20T08:31:34;9.30;;;7.57;;
31764;SDS011;18338;53.240;8.798;2022-11-20T08:34:01;10.87;;;7.70;;
31764;SDS011;18338;53.240;8.798;2022-11-20T08:36:34;9.20;;;7.63;;
31764;SDS011;18338;53.240;8.798;2022-11-20T08:39:01;9.53;;;7.27;;
31764;SDS011;18338;53.240;8.798;2022-11-20T08:41:29;11.77;;;7.87;;
31764;SDS011;18338;53.240;8.798;2022-11-20T08:43:59;9.47;;;7.07;;
31764;SDS011;18338;53.240;8.798;2022-11-20T08:46:31;9.17;;;7.53;;
31764;SDS011;18338;53.240;8.798;2022-11-20T08:49:10;9.97;;;7.23;;
31764;SDS011;18338;53.240;8.798;2022-11-20T08:51:40;9.30;;;7.47;;
31764;SDS011;18338;53.240;8.798;2022-11-20T08:54:08;10.97;;;7.47;;
31764;SDS011;18338;53.240;8.798;2022-11-20T08:56:34;10.53;;;8.03;;
31764;SDS011;18338;53.240;8.798;2022-11-20T08:59:01;10.83;;;8.13;;
31764;SDS011;18338;53.240;8.798;2022-11-20T09:01:49;12.07;;;9.77;;
31764;SDS011;18338;53.240;8.798;2022-11-20T09:04:15;11.87;;;8.60;;
31764;SDS011;18338;53.240;8.798;2022-11-20T09:06:42;10.37;;;8.03;;
31764;SDS011;18338;53.240;8.798;2022-11-20T09:09:09;9.27;;;7.77;;
31764;SDS011;18338;53.240;8.798;2022-11-20T09:11:35;9.13;;;6.53;;
31764;SDS011;18338;53.240;8.798;2022-11-20T09:14:02;9.20;;;7.67;;
31764;SDS011;18338;53.240;8.798;2022-11-20T09:16:30;7.70;;;6.30;;
31764;SDS011;18338;53.240;8.798;2022-11-20T09:18:57;9.97;;;8.57;;
31764;SDS011;18338;53.240;8.798;2022-11-20T09:21:44;9.73;;;7.40;;
31764;SDS011;18338;53.240;8.798;2022-11-20T09:24:11;9.93;;;7.07;;
31764;SDS011;18338;53.240;8.798;2022-11-20T09:26:37;11.57;;;8.33;;
31764;SDS011;18338;53.240;8.798;2022-11-20T09:29:04;10.80;;;7.70;;
31764;SDS011;18338;53.240;8.798;2022-11-20T09:31:31;9.77;;;8.57;;
31764;SDS011;18338;53.240;8.798;2022-11-20T09:33:57;10.83;;;8.27;;
31764;SDS011;18338;53.240;8.798;2022-11-20T09:36:24;11.47;;;9.03;;
31764;SDS011;18338;53.240;8.798;2022-11-20T09:38:51;11.97;;;8.33;;
31764;SDS011;18338;53.240;8.798;2022-11-20T09:41:27;14.63;;;11.47;;
31764;SDS011;18338;53.240;8.798;2022-11-20T09:44:18;13.17;;;10.80;;
31764;SDS011;18338;53.240;8.798;2022-11-20T09:50:18;12.47;;;8.43;;
31764;SDS011;18338;53.240;8.798;2022-11-20T09:52:50;8.47;;;7.57;;
31764;SDS011;18338;53.240;8.798;2022-11-20T09:55:35;10.17;;;7.93;;
31764;SDS011;18338;53.240;8.798;2022-11-20T09:58:05;10.10;;;8.63;;
31764;SDS011;18338;53.240;8.798;2022-11-20T10:00:34;10.33;;;8.87;;
31764;SDS011;18338;53.240;8.798;2022-11-20T10:03:11;11.60;;;9.57;;
31764;SDS011;18338;53.240;8.798;2022-11-20T10:05:47;14.93;;;10.30;;
31764;SDS011;18338;53.240;8.798;2022-11-20T10:08:19;10.73;;;9.23;;
31764;SDS011;18338;53.240;8.798;2022-11-20T10:16:25;15.30;;;10.60;;
31764;SDS011;18338;53.240;8.798;2022-11-20T10:19:06;14.57;;;12.50;;
31764;SDS011;18338;53.240;8.798;2022-11-20T10:24:57;9.70;;;7.50;;
31764;SDS011;18338;53.240;8.798;2022-11-20T10:30:13;8.23;;;6.50;;
31764;SDS011;18338;53.240;8.798;2022-11-20T10:32:45;8.10;;;6.23;;
31764;SDS011;18338;53.240;8.798;2022-11-20T10:37:58;12.17;;;7.97;;
31764;SDS011;18338;53.240;8.798;2022-11-20T10:40:43;9.73;;;8.00;;
31764;SDS011;18338;53.240;8.798;2022-11-20T10:43:18;10.00;;;8.77;;
31764;SDS011;18338;53.240;8.798;2022-11-20T10:45:58;8.07;;;6.83;;
31764;SDS011;18338;53.240;8.798;2022-11-20T10:48:31;7.97;;;6.83;;
31764;SDS011;18338;53.240;8.798;2022-11-20T10:51:10;7.33;;;6.23;;
31764;SDS011;18338;53.240;8.798;2022-11-20T10:56:16;8.00;;;7.18;;
31764;SDS011;18338;53.240;8.798;2022-11-20T10:59:04;7.40;;;6.43;;
31764;SDS011;18338;53.240;8.798;2022-11-20T11:01:45;6.22;;;5.63;;
31764;SDS011;18338;53.240;8.798;2022-11-20T11:04:29;5.57;;;5.07;;
31764;SDS011;18338;53.240;8.798;2022-11-20T11:07:20;5.07;;;4.47;;
31764;SDS011;18338;53.240;8.798;2022-11-20T11:09:54;7.30;;;6.30;;
31764;SDS011;18338;53.240;8.798;2022-11-20T11:12:23;6.07;;;5.05;;
31764;SDS011;18338;53.240;8.798;2022-11-20T11:14:55;6.78;;;6.07;;
31764;SDS011;18338;53.240;8.798;2022-11-20T11:17:24;5.60;;;5.10;;
31764;SDS011;18338;53.240;8.798;2022-11-20T11:20:00;6.57;;;5.85;;
31764;SDS011;18338;53.240;8.798;2022-11-20T11:22:30;8.30;;;7.32;;
31764;SDS011;18338;53.240;8.798;2022-11-20T11:25:00;7.90;;;7.10;;
31764;SDS011;18338;53.240;8.798;2022-11-20T11:27:28;8.98;;;7.15;;
31764;SDS011;18338;53.240;8.798;2022-11-20T11:30:01;9.47;;;7.50;;
31764;SDS011;18338;53.240;8.798;2022-11-20T11:32:37;8.97;;;7.27;;
31764;SDS011;18338;53.240;8.798;2022-11-20T11:35:05;29.37;;;22.20;;
31764;SDS011;18338;53.240;8.798;2022-11-20T11:37:34;12.10;;;9.87;;
31764;SDS011;18338;53.240;8.798;2022-11-20T11:40:03;11.67;;;9.27;;
31764;SDS011;18338;53.240;8.798;2022-11-20T11:42:56;12.97;;;9.03;;
31764;SDS011;18338;53.240;8.798;2022-11-20T11:45:25;9.47;;;7.80;;
31764;SDS011;18338;53.240;8.798;2022-11-20T11:47:53;11.73;;;9.27;;
31764;SDS011;18338;53.240;8.798;2022-11-20T11:50:23;13.93;;;10.10;;
31764;SDS011;18338;53.240;8.798;2022-11-20T11:53:12;12.33;;;9.60;;
31764;SDS011;18338;53.240;8.798;2022-11-20T11:55:50;11.53;;;9.03;;
31764;SDS011;18338;53.240;8.798;2022-11-20T12:01:35;28.10;;;20.85;;
31764;SDS011;18338;53.240;8.798;2022-11-20T12:04:17;12.57;;;9.05;;
31764;SDS011;18338;53.240;8.798;2022-11-20T12:07:10;9.68;;;8.68;;
31764;SDS011;18338;53.240;8.798;2022-11-20T12:10:19;14.63;;;13.13;;
31764;SDS011;18338;53.240;8.798;2022-11-20T12:13:16;14.10;;;12.57;;
31764;SDS011;18338;53.240;8.798;2022-11-20T12:15:59;14.02;;;12.63;;
31764;SDS011;18338;53.240;8.798;2022-11-20T12:18:29;12.45;;;11.25;;
31764;SDS011;18338;53.240;8.798;2022-11-20T12:23:44;11.20;;;8.93;;
31764;SDS011;18338;53.240;8.798;2022-11-20T12:26:33;12.50;;;9.90;;
31764;SDS011;18338;53.240;8.798;2022-11-20T12:29:21;10.20;;;8.88;;
31764;SDS011;18338;53.240;8.798;2022-11-20T12:32:06;10.70;;;8.90;;
31764;SDS011;18338;53.240;8.798;2022-11-20T12:37:38;7.68;;;6.93;;
31764;SDS011;18338;53.240;8.798;2022-11-20T12:46:00;8.15;;;7.32;;
31764;SDS011;18338;53.240;8.798;2022-11-20T12:54:25;6.88;;;6.28;;
31764;SDS011;18338;53.240;8.798;2022-11-20T12:57:29;9.18;;;7.50;;
31764;SDS011;18338;53.240;8.798;2022-11-20T13:00:10;8.13;;;7.32;;
31764;SDS011;18338;53.240;8.798;2022-11-20T13:08:27;10.00;;;9.00;;
31764;SDS011;18338;53.240;8.798;2022-11-20T13:14:09;10.90;;;9.60;;
31764;SDS011;18338;53.240;8.798;2022-11-20T13:16:59;11.38;;;9.65;;
31764;SDS011;18338;53.240;8.798;2022-11-20T13:19:34;12.55;;;9.38;;
31764;SDS011;18338;53.240;8.798;2022-11-20T13:22:01;12.13;;;9.80;;
31764;SDS011;18338;53.240;8.798;2022-11-20T13:24:29;9.57;;;8.40;;
31764;SDS011;18338;53.240;8.798;2022-11-20T13:27:00;9.77;;;8.65;;
31764;SDS011;18338;53.240;8.798;2022-11-20T13:29:30;12.10;;;10.82;;
31764;SDS011;18338;53.240;8.798;2022-11-20T13:32:05;11.30;;;10.00;;
31764;SDS011;18338;53.240;8.798;2022-11-20T13:34:33;9.57;;;8.35;;
31764;SDS011;18338;53.240;8.798;2022-11-20T13:37:02;9.82;;;7.97;;
31764;SDS011;18338;53.240;8.798;2022-11-20T13:39:33;11.80;;;9.18;;
31764;SDS011;18338;53.240;8.798;2022-11-20T13:42:02;12.90;;;9.88;;
31764;SDS011;18338;53.240;8.798;2022-11-20T13:44:33;10.70;;;9.30;;
31764;SDS011;18338;53.240;8.798;2022-11-20T13:47:04;11.65;;;10.15;;
31764;SDS011;18338;53.240;8.798;2022-11-20T13:49:47;13.98;;;11.30;;
31764;SDS011;18338;53.240;8.798;2022-11-20T13:52:26;14.75;;;10.65;;
31764;SDS011;18338;53.240;8.798;2022-11-20T13:55:48;12.77;;;10.23;;
31764;SDS011;18338;53.240;8.798;2022-11-20T14:03:52;11.23;;;8.93;;
31764;SDS011;18338;53.240;8.798;2022-11-20T14:06:41;12.10;;;8.60;;
31764;SDS011;18338;53.240;8.798;2022-11-20T14:09:12;10.48;;;8.55;;
31764;SDS011;18338;53.240;8.798;2022-11-20T14:11:50;10.65;;;9.00;;
31764;SDS011;18338;53.240;8.798;2022-11-20T14:14:17;9.60;;;8.60;;
31764;SDS011;18338;53.240;8.798;2022-11-20T14:16:48;10.85;;;8.68;;
31764;SDS011;18338;53.240;8.798;2022-11-20T14:19:28;16.45;;;12.65;;
31764;SDS011;18338;53.240;8.798;2022-11-20T14:22:07;8.52;;;7.55;;
31764;SDS011;18338;53.240;8.798;2022-11-20T14:24:40;8.43;;;7.32;;
31764;SDS011;18338;53.240;8.798;2022-11-20T14:27:19;8.95;;;6.82;;
31764;SDS011;18338;53.240;8.798;2022-11-20T14:29:48;9.95;;;8.85;;
31764;SDS011;18338;53.240;8.798;2022-11-20T14:32:17;11.30;;;10.02;;
31764;SDS011;18338;53.240;8.798;2022-11-20T14:34:46;8.63;;;7.53;;
31764;SDS011;18338;53.240;8.798;2022-11-20T14:37:19;11.73;;;10.48;;
31764;SDS011;18338;53.240;8.798;2022-11-20T14:39:51;12.20;;;9.45;;
31764;SDS011;18338;53.240;8.798;2022-11-20T14:42:20;11.50;;;8.50;;
31764;SDS011;18338;53.240;8.798;2022-11-20T14:44:57;12.30;;;9.87;;
31764;SDS011;18338;53.240;8.798;2022-11-20T14:47:26;12.83;;;9.73;;
31764;SDS011;18338;53.240;8.798;2022-11-20T14:49:56;12.80;;;10.03;;
31764;SDS011;18338;53.240;8.798;2022-11-20T14:52:30;11.80;;;9.13;;
31764;SDS011;18338;53.240;8.798;2022-11-20T14:54:57;12.87;;;9.77;;
31764;SDS011;18338;53.240;8.798;2022-11-20T14:57:36;17.57;;;13.37;;
31764;SDS011;18338;53.240;8.798;2022-11-20T15:00:04;20.13;;;15.43;;
31764;SDS011;18338;53.240;8.798;2022-11-20T15:02:41;13.83;;;10.50;;
31764;SDS011;18338;53.240;8.798;2022-11-20T15:05:09;11.27;;;9.47;;
31764;SDS011;18338;53.240;8.798;2022-11-20T15:07:37;14.57;;;10.97;;
31764;SDS011;18338;53.240;8.798;2022-11-20T15:10:10;15.10;;;11.27;;
31764;SDS011;18338;53.240;8.798;2022-11-20T15:12:40;17.43;;;12.27;;
31764;SDS011;18338;53.240;8.798;2022-11-20T15:15:35;14.87;;;12.10;;
31764;SDS011;18338;53.240;8.798;2022-11-20T15:18:11;17.23;;;12.50;;
31764;SDS011;18338;53.240;8.798;2022-11-20T15:20:40;16.33;;;12.67;;
31764;SDS011;18338;53.240;8.798;2022-11-20T15:23:11;17.17;;;12.80;;
31764;SDS011;18338;53.240;8.798;2022-11-20T15:25:40;19.83;;;14.27;;
31764;SDS011;18338;53.240;8.798;2022-11-20T15:28:21;16.03;;;12.70;;
31764;SDS011;18338;53.240;8.798;2022-11-20T15:30:53;14.53;;;10.80;;
31764;SDS011;18338;53.240;8.798;2022-11-20T15:33:22;18.20;;;13.20;;
31764;SDS011;18338;53.240;8.798;2022-11-20T15:35:49;16.90;;;11.97;;
31764;SDS011;18338;53.240;8.798;2022-11-20T15:38:16;16.20;;;11.17;;
31764;SDS011;18338;53.240;8.798;2022-11-20T15:40:43;17.20;;;12.40;;
31764;SDS011;18338;53.240;8.798;2022-11-20T15:43:11;19.13;;;13.37;;
31764;SDS011;18338;53.240;8.798;2022-11-20T15:45:55;20.37;;;14.50;;
31764;SDS011;18338;53.240;8.798;2022-11-20T15:48:27;26.63;;;18.50;;
31764;SDS011;18338;53.240;8.798;2022-11-20T15:50:58;23.57;;;16.10;;
31764;SDS011;18338;53.240;8.798;2022-11-20T15:53:29;24.43;;;17.17;;
31764;SDS011;18338;53.240;8.798;2022-11-20T15:55:56;22.77;;;16.17;;
31764;SDS011;18338;53.240;8.798;2022-11-20T15:58:23;21.50;;;15.47;;
31764;SDS011;18338;53.240;8.798;2022-11-20T16:00:50;22.10;;;15.27;;
31764;SDS011;18338;53.240;8.798;2022-11-20T16:03:17;21.40;;;15.67;;